• Join FlightAware (Why Join?)
  • Login
  • US Flag GB Flag 
21:10 EDT


 

Airport Tracker/Info


-or-


 

Live Flight TrackerFlight Track Log ✈ CTL13 ✈ 12-Apr-2013 ✈ KMDW - KGRR

Flight Track Log - Related Links

Times and Time Zones

All times are in EDT time to prevent confusion due to time zone crossing. See the CTL13 flight status page for this flight to view local times or setup timezone preferences in your user account.

Time Position Orientation Groundspeed Altitude Reporting Facility
EDT Latitude Longitude Course Direction KTS MPH feet Rate Location/Type
23:44 41.8000 -87.7167 93° East 162 186 1,900  Level Chicago TRACON
23:45 41.8000 -87.6500 90° East 177 204 2,800 480 Climbing Chicago TRACON
23:46 41.8333 -87.6000 48° Northeast 198 228 2,900  Climbing Chicago TRACON
23:47 41.8667 -87.5333 56° Northeast 200 230 2,900 120 Level Chicago TRACON
23:49 41.9000 -87.4500 62° Northeast 193 222 3,200 480 Climbing Chicago TRACON
23:50 41.7790 -87.3666 93° East  Level FlightAware Approximate
23:51 41.9589 -87.3628 48° Northeast 186 214 4,500  Level Chicago Center
23:52 41.9861 -87.3075 56° Northeast 180 207 5,000 480 Climbing Chicago Center
23:53 42.0208 -87.2350 57° Northeast 189 217 5,500 540 Climbing Chicago Center
23:54 42.0489 -87.1786 56° Northeast 182 209 6,100 540 Climbing Chicago Center
23:55 42.0806 -87.1231 52° Northeast 185 213 6,700 420 Climbing Chicago Center
23:56 42.1050 -87.0628 61° Northeast 185 213 7,000 120 Climbing Chicago Center
23:57 42.1331 -87.0078 55° Northeast 191 220 7,000  Level Chicago Center
23:58 42.1614 -86.9478 57° Northeast 191 220 7,000  Level Chicago Center
23:59 42.1911 -86.8869 57° Northeast 195 224 7,000  Level Chicago Center
00:00 42.2203 -86.8275 56° Northeast 192 221 7,000  Level Chicago Center
00:01 42.2511 -86.7683 55° Northeast 193 222 7,000  Level Chicago Center
00:02 42.2800 -86.7072 57° Northeast 194 223 7,000  Level Chicago Center
00:03 42.3144 -86.6381 56° Northeast 194 223 7,000  Level Chicago Center
00:04 42.3431 -86.5783 57° Northeast 192 221 7,000  Level Chicago Center
00:05 42.3706 -86.5172 59° Northeast 191 220 7,000  Level Chicago Center
00:06 42.3983 -86.4569 58° Northeast 191 220 7,000  Level Chicago Center
00:07 42.4294 -86.3994 54° Northeast 189 217 7,000  Level Chicago Center
00:08 42.4611 -86.3431 53° Northeast 190 219 7,000  Level Chicago Center
00:09 42.4892 -86.2872 56° Northeast 184 212 7,000  Level Chicago Center
00:10 42.5178 -86.2297 56° Northeast 184 212 7,000  Level Chicago Center
00:11 42.5469 -86.1697 57° Northeast 189 217 7,000  Level Chicago Center
00:12 42.5758 -86.1086 57° Northeast 192 221 7,000  Level Chicago Center
00:13 42.6064 -86.0517 54° Northeast 189 217 7,100 -420 Climbing Chicago Center
00:14 42.6417 -85.9789 57° Northeast 192 221 6,200 -1,080 Descending Chicago Center
00:15 42.6744 -85.9153 55° Northeast 202 232 5,000 -1,200 Descending Chicago Center
00:16 42.7083 -85.8544 53° Northeast 203 234 3,800 -1,020 Descending Chicago Center
00:17 42.7417 -85.7914 54° Northeast 205 236 3,000 -420 Descending Chicago Center
00:18 42.7711 -85.7297 57° Northeast 199 229 3,000  Level Chicago Center
00:19 42.8000 -85.6731 55° Northeast 192 221 3,000 -60 Level Chicago Center
00:20 42.8217 -85.6108 65° Northeast 190 219 2,900 -60 Descending Chicago Center
00:21 42.8347 -85.5444 75° East 187 215 2,900  Level Chicago Center
00:22 42.8494 -85.4806 73° East 182 209 2,900  Level Chicago Center
00:23 42.8561 -85.4142 82° East 180 207 2,900  Level Chicago Center
00:24 42.8614 -85.3500 84° East 176 203 2,900  Level Chicago Center
00:25 42.8886 -85.3775 323° Northwest 148 170 2,900 -480 Level Chicago Center
00:26 42.8906 -85.4192 274° West 123 142 2,000 -780 Descending Chicago Center
00:27 42.8864 -85.4583 262° West 111 128 1,400 -600 Descending Chicago Center